Time;durP1;ratioP1;P1;durP2;ratioP2;P2;SDS_P1;SDS_P2;PMS_P1;PMS_P2;Temp;Humidity;BMP_temperature;BMP_pressure;BME280_temperature;BME280_humidity;BME280_pressure;Samples;Min_cycle;Max_cycle;Signal;HPM_P1;HPM_P2
2024/04/12 00:40:00;;;;;;;0.00;0.00;;;;;;;8.83;100.00;101700.00;6460706;21;20420;-76
2024/04/12 02:27:07;;;;;;;0.00;0.00;;;;;;;8.23;100.00;101626.84;6455419;21;20073;-76
2024/04/12 02:30:11;;;;;;;0.00;0.00;;;;;;;8.40;100.00;101643.50;6413669;22;19997;-77
2024/04/12 02:33:35;;;;;;;;;;;;;;;;;;;;;
2024/04/12 02:36:58;;;;;;;;;;;;;;;;;;;;;
2024/04/12 03:00:03;;;;;;;0.00;0.00;;;;;;;8.25;100.00;101673.78;6223760;22;20070;-76
2024/04/12 03:03:42;;;;;;;;;;;;;;;;;;;;;
2024/04/12 05:36:18;;;;;;;0.00;0.00;;;;;;;8.30;100.00;101654.06;6365016;22;20308;-78
2024/04/12 06:00:15;;;;;;;0.10;0.10;;;;;;;8.62;100.00;101684.03;5812637;24;20088;-79
2024/04/12 06:21:25;;;;;;;;;;;;;;;;;;;;;
2024/04/12 06:27:29;;;;;;;0.00;0.00;;;;;;;8.83;100.00;101626.34;6288693;22;20000;-74
2024/04/12 06:30:01;;;;;;;0.00;0.00;;;;;;;9.12;100.00;101651.25;6309173;22;20001;-75
2024/04/12 06:32:34;;;;;;;0.00;0.00;;;;;;;9.22;100.00;101659.75;6427087;22;20001;-75
2024/04/12 06:35:03;;;;;;;0.00;0.00;;;;;;;9.29;100.00;101650.63;6386574;22;20064;-76
2024/04/12 06:37:35;;;;;;;0.00;0.00;;;;;;;9.51;100.00;101681.88;6387804;22;19998;-74
2024/04/12 06:40:03;;;;;;;0.00;0.00;;;;;;;9.44;100.00;101664.75;6468498;22;19998;-74
2024/04/12 06:42:29;;;;;;;0.00;0.00;;;;;;;9.43;100.00;101657.59;6384778;22;20306;-76
2024/04/12 06:45:00;;;;;;;0.00;0.00;;;;;;;9.52;100.00;101683.56;6386053;22;20400;-75
2024/04/12 06:47:27;;;;;;;0.10;0.10;;;;;;;9.47;100.00;101671.66;6425131;22;20701;-76
2024/04/12 06:50:08;;;;;;;0.00;0.00;;;;;;;9.39;100.00;101661.88;6471397;22;20009;-77
2024/04/12 06:52:36;;;;;;;0.00;0.00;;;;;;;9.55;100.00;101688.56;6387937;22;20385;-76
2024/04/12 06:55:07;;;;;;;0.00;0.00;;;;;;;9.44;100.00;101659.28;6469981;22;19994;-78
2024/04/12 06:57:35;;;;;;;0.00;0.00;;;;;;;9.60;100.00;101669.59;6468839;22;20076;-76
2024/04/12 07:00:01;;;;;;;0.00;0.00;;;;;;;9.64;100.00;101663.66;6471104;22;20002;-76
2024/04/12 07:02:29;;;;;;;0.00;0.00;;;;;;;9.67;100.00;101665.97;6471909;22;19998;-75
2024/04/12 07:17:01;;;;;;;0.00;0.00;;;;;;;10.32;100.00;101698.03;6480641;21;20010;-75
2024/04/12 07:19:28;;;;;;;0.00;0.00;;;;;;;10.23;100.00;101662.00;6428370;22;20026;-74
2024/04/12 07:21:56;;;;;;;0.00;0.00;;;;;;;10.45;100.00;101680.63;6383486;22;20013;-76
2024/04/12 07:24:22;;;;;;;0.00;0.00;;;;;;;10.65;100.00;101689.34;6427711;22;19997;-77
2024/04/12 07:26:54;;;;;;;0.00;0.00;;;;;;;10.70;100.00;101676.88;6424608;22;20032;-76
2024/04/12 07:29:44;;;;;;;0.00;0.00;;;;;;;10.89;100.00;101697.59;6430473;22;20431;-76
2024/04/12 07:32:22;;;;;;;0.00;0.00;;;;;;;10.91;100.00;101698.19;6472058;22;20068;-75
2024/04/12 08:13:43;;;;;;;0.00;0.00;;;;;;;14.19;100.00;101714.28;6471844;22;20000;-77
2024/04/12 08:16:46;;;;;;;0.00;0.00;;;;;;;14.04;100.00;101710.28;6119140;23;20012;-78
2024/04/12 08:39:42;;;;;;;0.00;0.00;;;;;;;21.78;55.52;101706.38;6526640;22;20030;-77
2024/04/12 08:42:28;;;;;;;0.00;0.00;;;;;;;21.19;55.32;101703.38;6477625;22;19997;-77
2024/04/12 08:45:30;;;;;;;;;;;;;;;;;;;;;
2024/04/12 08:48:22;;;;;;;0.00;0.00;;;;;;;23.64;52.40;101758.41;6521731;22;20001;-77
2024/04/12 08:51:13;;;;;;;0.00;0.00;;;;;;;25.24;48.17;101760.66;6461152;22;20000;-76
2024/04/12 08:54:15;;;;;;;;;;;;;;;;;;;;;
2024/04/12 09:00:55;;;;;;;0.00;0.00;;;;;;;24.22;45.46;101740.53;6303526;22;20450;-77
2024/04/12 09:04:14;;;;;;;0.00;0.00;;;;;;;23.29;47.90;101758.25;6471372;22;20003;-78
2024/04/12 09:14:10;;;;;;;0.00;0.00;;;;;;;29.53;37.47;101766.09;6416064;22;20057;-77
2024/04/12 09:16:52;;;;;;;0.00;0.00;;;;;;;29.41;34.97;101727.56;6402095;22;20009;-75
2024/04/12 09:19:25;;;;;;;0.00;0.00;;;;;;;30.64;33.41;101767.84;6419524;22;20002;-77
2024/04/12 09:23:13;;;;;;;0.00;0.00;;;;;;;30.94;33.13;101759.56;6415344;22;20086;-77
2024/04/12 09:25:55;;;;;;;0.00;0.00;;;;;;;30.75;33.71;101760.41;6417392;22;20002;-77
2024/04/12 09:28:32;;;;;;;0.00;0.00;;;;;;;29.52;34.75;101750.38;6415238;22;20422;-76
2024/04/12 09:40:52;;;;;;;;;;;;;;;;;;;;;
2024/04/12 09:43:59;;;;;;;0.00;0.00;;;;;;;25.79;41.63;101730.16;6366625;22;20741;-76
2024/04/12 10:44:16;;;;;;;0.00;0.00;;;;;;;29.48;34.37;101736.19;6246497;22;20078;-77
2024/04/12 10:47:12;;;;;;;0.00;0.00;;;;;;;28.70;34.86;101728.09;6278202;22;20021;-77
2024/04/12 10:49:37;;;;;;;0.00;0.00;;;;;;;27.77;36.42;101733.69;6318740;22;20412;-78
2024/04/12 10:55:34;;;;;;;0.00;0.00;;;;;;;29.03;33.95;101703.63;6282811;22;20404;-77
2024/04/12 10:58:28;;;;;;;;;;;;;;;;;;;;;
2024/04/12 11:01:04;;;;;;;0.00;0.00;;;;;;;29.41;33.22;101713.50;6318350;22;20315;-75
2024/04/12 11:03:38;;;;;;;0.00;0.00;;;;;;;28.83;34.53;101736.50;6318929;22;20411;-76
2024/04/12 11:09:38;;;;;;;0.00;0.00;;;;;;;28.00;36.70;101746.09;6485505;22;20005;-77
2024/04/12 12:01:49;;;;;;;;;;;;;;;;;;;;;
2024/04/12 12:05:06;;;;;;;0.00;0.00;;;;;;;31.98;29.53;101681.34;6038940;23;20015;-78
2024/04/12 12:29:53;;;;;;;0.00;0.00;;;;;;;32.40;28.48;101656.81;6424441;22;20036;-77
2024/04/12 12:36:52;;;;;;;;;;;;;;;;;;;;;
2024/04/12 12:39:30;;;;;;;0.00;0.00;;;;;;;31.40;30.16;101654.22;5979334;23;19997;-77
2024/04/12 13:00:46;;;;;;;;;;;;;;;;;;;;;
2024/04/12 13:32:47;;;;;;;;;;;;;;;;;;;;;
2024/04/12 14:21:02;;;;;;;;;;;;;;;;;;;;;
2024/04/12 14:23:44;;;;;;;0.00;0.00;;;;;;;32.59;27.10;101613.31;6105324;23;20005;-79
2024/04/12 14:26:27;;;;;;;0.00;0.00;;;;;;;33.21;26.02;101555.22;6097576;23;20122;-78
2024/04/12 14:29:05;;;;;;;0.00;0.00;;;;;;;33.83;25.99;101588.34;6098143;23;20144;-78
2024/04/12 14:31:33;;;;;;;0.00;0.00;;;;;;;33.22;26.66;101588.00;6335647;22;19998;-75
2024/04/12 14:34:20;;;;;;;0.00;0.00;;;;;;;31.20;28.08;101556.66;6387746;22;20018;-76
2024/04/12 14:37:06;;;;;;;0.00;0.00;;;;;;;31.18;28.79;101536.44;6382384;22;20924;-77
2024/04/12 14:39:32;;;;;;;0.00;0.00;;;;;;;30.13;29.28;101550.78;6385222;22;20005;-76
2024/04/12 14:42:02;;;;;;;0.00;0.00;;;;;;;30.38;29.55;101557.69;6382825;22;20010;-77
2024/04/12 14:44:53;;;;;;;;;;;;;;;;;;;;;
2024/04/12 14:51:04;;;;;;;0.00;0.00;;;;;;;32.11;28.24;101537.66;6327326;22;19994;-76
2024/04/12 14:53:43;;;;;;;;;;;;;;;;;;;;;
2024/04/12 14:56:23;;;;;;;0.00;0.00;;;;;;;30.40;29.31;101532.75;6241755;22;19993;-78
2024/04/12 14:58:49;;;;;;;0.00;0.00;;;;;;;30.63;29.67;101512.19;6343247;22;19998;-77
2024/04/12 15:53:30;;;;;;;0.00;0.00;;;;;;;27.12;32.79;101433.97;6478304;22;20277;-79
2024/04/12 16:13:37;;;;;;;;;;;;;;;;;;;;;
2024/04/12 16:16:03;;;;;;;0.00;0.00;;;;;;;23.26;38.29;101454.75;6619663;21;19996;-79
2024/04/12 16:22:19;;;;;;;0.00;0.00;;;;;;;21.90;41.89;101456.09;6477235;22;20535;-79
2024/04/12 16:28:44;;;;;;;0.00;0.00;;;;;;;23.04;41.54;101458.50;6582733;21;20511;-76
2024/04/12 16:31:25;;;;;;;0.00;0.00;;;;;;;23.11;41.08;101405.88;6533841;21;20007;-78
2024/04/12 16:34:01;;;;;;;;;;;;;;;;;;;;;
2024/04/12 16:36:49;;;;;;;0.00;0.00;;;;;;;24.02;40.26;101447.81;6579685;21;20007;-78
2024/04/12 16:39:18;;;;;;;0.00;0.00;;;;;;;23.65;40.21;101427.81;6582442;21;19999;-80
2024/04/12 16:41:44;;;;;;;0.00;0.00;;;;;;;22.86;41.21;101422.22;6580186;21;20003;-77
2024/04/12 16:44:40;;;;;;;0.00;0.00;;;;;;;21.66;43.95;101459.19;6495623;21;20402;-80
2024/04/12 16:47:40;;;;;;;;;;;;;;;;;;;;;
2024/04/12 16:50:16;;;;;;;0.00;0.00;;;;;;;20.51;47.18;101425.00;6539675;21;20048;-79
2024/04/12 16:52:45;;;;;;;0.00;0.00;;;;;;;20.44;47.37;101419.03;6582936;21;20004;-79
2024/04/12 16:55:56;;;;;;;0.00;0.00;;;;;;;20.31;48.20;101440.13;6495355;21;20170;-77
2024/04/12 17:05:39;;;;;;;0.00;0.00;;;;;;;19.63;50.81;101439.66;6633919;21;20003;-81
2024/04/12 17:08:24;;;;;;;;;;;;;;;;;;;;;
2024/04/12 17:11:36;;;;;;;0.00;0.00;;;;;;;19.33;50.99;101420.44;6632053;21;19927;-78
2024/04/12 17:14:31;;;;;;;0.00;0.00;;;;;;;19.07;52.81;101438.53;6589798;21;19988;-78
2024/04/12 17:17:03;;;;;;;;;;;;;;;18.76;53.33;101445.31;6625657;21;20000;-77
2024/04/12 17:20:06;;;;;;;0.00;0.00;;;;;;;18.46;55.20;101452.03;6630594;21;20602;-78
2024/04/12 17:22:53;;;;;;;0.00;0.00;;;;;;;18.02;56.17;101386.63;6635024;21;19999;-77
2024/04/12 17:26:28;;;;;;;;;;;;;;;;;;;;;
2024/04/12 17:44:39;;;;;;;;;;;;;;;;;;;;;
2024/04/12 17:47:53;;;;;;;;;;;;;;;;;;;;;
2024/04/12 17:51:07;;;;;;;;;;;;;;;;;;;;;
2024/04/12 17:54:06;;;;;;;0.00;0.00;;;;;;;16.22;68.19;101383.94;5994287;23;20311;-78
2024/04/12 17:57:22;;;;;;;;;;;;;;;;;;;;;
2024/04/12 19:08:20;;;;;;;0.00;0.00;;;;;;;12.55;100.00;101351.47;6642121;21;20348;-78
2024/04/12 19:10:57;;;;;;;0.00;0.00;;;;;;;12.72;100.00;101387.06;6641606;21;20028;-77
2024/04/12 19:13:57;;;;;;;;;;;;;;;;;;;;;
2024/04/12 19:16:33;;;;;;;0.00;0.00;;;;;;;12.68;100.00;101422.41;6625084;21;19991;-77
2024/04/12 19:19:52;;;;;;;0.00;0.00;;;;;;;12.62;100.00;101412.47;6639414;21;20008;-78
2024/04/12 19:26:18;;;;;;;;;;;;;;;;;;;;;
2024/04/12 19:29:54;;;;;;;;;;;;;;;;;;;;;
2024/04/12 19:36:02;;;;;;;0.00;0.00;;;;;;;12.31;100.00;101427.66;6141494;22;20005;-76
2024/04/12 20:20:19;;;;;;;;;;;;;;;;;;;;;
2024/04/12 20:33:55;;;;;;;;;;;;;;;;;;;;;
2024/04/12 21:57:30;;;;;;;0.00;0.00;;;;;;;10.51;100.00;101428.09;6574803;21;20012;-79
2024/04/12 21:59:56;;;;;;;0.00;0.00;;;;;;;10.47;100.00;101410.53;6583794;21;20007;-79
2024/04/12 22:02:42;;;;;;;0.08;0.08;;;;;;;10.69;100.00;101439.94;6586600;21;19993;-78
2024/04/12 22:05:19;;;;;;;0.00;0.00;;;;;;;10.69;100.00;101439.94;6585864;21;20004;-79
2024/04/12 22:09:01;;;;;;;0.00;0.00;;;;;;;10.91;100.00;101470.22;6582839;21;20045;-77
2024/04/12 22:11:31;;;;;;;0.00;0.00;;;;;;;10.58;100.00;101412.38;6400294;22;19983;-77
2024/04/12 22:14:00;;;;;;;0.03;0.03;;;;;;;10.94;100.00;101456.88;6385596;22;19994;-80
2024/04/12 22:17:29;;;;;;;;;;;;;;;;;;;;;
2024/04/12 22:19:27;;;;;;;0.00;0.00;;;;;;;10.56;100.00;101387.19;6376612;22;19990;-80
2024/04/12 22:21:55;;;;;;;0.00;0.00;;;;;;;10.68;100.00;101406.28;6390663;22;20009;-81
2024/04/12 22:24:20;;;;;;;0.00;0.00;;;;;;;10.55;100.00;101388.25;6389442;22;20008;-80
2024/04/12 22:26:47;;;;;;;0.00;0.00;;;;;;;10.55;100.00;101395.63;6459966;21;19996;-79
2024/04/12 22:29:16;;;;;;;0.00;0.00;;;;;;;10.82;100.00;101439.69;6581248;21;20004;-80
2024/04/12 22:31:52;;;;;;;0.00;0.00;;;;;;;10.79;100.00;101427.31;6635255;21;20007;-81
2024/04/12 22:34:41;;;;;;;;;;;;;;;;;;;;;
2024/04/12 22:37:17;;;;;;;0.00;0.00;;;;;;;10.45;100.00;101368.91;6588807;21;20438;-78
2024/04/12 22:39:43;;;;;;;0.00;0.00;;;;;;;10.60;100.00;101388.38;6543710;21;20008;-78
2024/04/12 22:42:19;;;;;;;0.00;0.00;;;;;;;10.64;100.00;101405.09;6585677;21;20000;-78
2024/04/12 22:45:00;;;;;;;0.00;0.00;;;;;;;10.58;100.00;101401.44;6582036;21;20007;-77
2024/04/12 22:50:39;;;;;;;0.00;0.00;;;;;;;10.58;100.00;101409.63;6549590;21;20058;-79
2024/04/12 22:53:08;;;;;;;0.00;0.00;;;;;;;10.46;100.00;101386.97;6629092;21;19985;-78
2024/04/12 22:56:03;;;;;;;0.00;0.00;;;;;;;10.34;100.00;101361.53;6586934;21;19993;-79
2024/04/12 22:58:38;;;;;;;0.00;0.00;;;;;;;10.61;100.00;101409.16;6605410;21;19999;-79
2024/04/12 23:01:17;;;;;;;0.00;0.00;;;;;;;10.59;100.00;101400.38;6588252;21;20008;-79
2024/04/12 23:04:22;;;;;;;;;;;;;;;;;;;;;
2024/04/12 23:07:14;;;;;;;;;;;;;;;;;;;;;
2024/04/12 23:09:47;;;;;;;0.00;0.00;;;;;;;10.78;100.00;101408.41;6587964;21;19996;-78
2024/04/12 23:12:14;;;;;;;0.00;0.00;;;;;;;10.75;100.00;101406.16;6584352;21;20028;-78
2024/04/12 23:14:41;;;;;;;0.00;0.00;;;;;;;10.62;100.00;101385.38;6629821;21;19996;-78
2024/04/12 23:39:30;;;;;;;;;;;;;;;;;;;;;
2024/04/12 23:42:06;;;;;;;;;;;;;;;;;;;;;
2024/04/12 23:48:16;;;;;;;0.00;0.00;;;;;;;10.45;100.00;101298.66;6476938;22;20008;-78
2024/04/12 23:58:00;;;;;;;0.00;0.00;;;;;;;10.89;100.00;101346.50;6479370;22;20001;-79
